createdAt,value
2019-05-16T00:00:28.934Z,3.70
2019-05-16T00:02:58.845Z,5.60
2019-05-16T00:05:28.049Z,2.73
2019-05-16T00:07:58.987Z,6.77
2019-05-16T00:10:28.116Z,5.47
2019-05-16T00:12:59.256Z,2.63
2019-05-16T00:15:28.728Z,3.33
2019-05-16T00:17:58.352Z,3.90
2019-05-16T00:20:28.517Z,6.27
2019-05-16T00:22:58.884Z,4.63
2019-05-16T00:25:28.535Z,4.20
2019-05-16T00:27:58.663Z,4.43
2019-05-16T00:30:28.816Z,5.67
2019-05-16T00:32:58.778Z,6.17
2019-05-16T00:35:28.511Z,4.77
2019-05-16T00:37:59.114Z,4.60
2019-05-16T00:40:28.041Z,3.57
2019-05-16T00:42:58.639Z,4.07
2019-05-16T00:45:29.184Z,5.07
2019-05-16T00:47:58.515Z,3.27
2019-05-16T00:50:28.925Z,5.23
2019-05-16T00:52:58.907Z,6.60
2019-05-16T00:55:29.867Z,3.53
2019-05-16T00:57:58.864Z,4.63
2019-05-16T01:00:45.396Z,4.83
2019-05-16T01:03:14.439Z,4.37
2019-05-16T01:05:43.811Z,5.43
2019-05-16T01:08:12.693Z,3.07
2019-05-16T01:10:41.598Z,4.63
2019-05-16T01:13:10.193Z,4.90
2019-05-16T01:15:38.705Z,3.17
2019-05-16T01:18:08.034Z,4.37
2019-05-16T01:20:38.646Z,4.27
2019-05-16T01:23:08.933Z,3.30
2019-05-16T01:25:38.814Z,3.67
2019-05-16T01:28:08.830Z,4.00
2019-05-16T01:30:38.057Z,4.00
2019-05-16T01:33:08.862Z,6.97
2019-05-16T01:35:38.627Z,6.03
2019-05-16T01:38:08.716Z,7.83
2019-05-16T01:40:38.736Z,7.23
2019-05-16T01:43:08.550Z,4.40
2019-05-16T01:45:38.456Z,5.90
2019-05-16T01:48:08.284Z,3.53
2019-05-16T01:50:38.775Z,5.57
2019-05-16T01:53:08.622Z,4.47
2019-05-16T01:55:38.143Z,4.57
2019-05-16T01:58:08.011Z,3.77
2019-05-16T02:00:48.485Z,3.17
2019-05-16T02:03:08.385Z,5.27
2019-05-16T02:05:38.721Z,6.00
2019-05-16T02:08:08.879Z,4.97
2019-05-16T02:10:37.973Z,7.93
2019-05-16T02:13:08.529Z,5.33
2019-05-16T02:15:38.324Z,5.43
2019-05-16T02:18:08.194Z,10.27
2019-05-16T02:20:39.198Z,7.43
2019-05-16T02:23:08.053Z,7.00
2019-05-16T02:25:38.217Z,10.57
2019-05-16T02:28:06.874Z,4.87
2019-05-16T02:30:35.410Z,5.43
2019-05-16T02:33:04.012Z,6.33
2019-05-16T02:35:32.517Z,3.43
2019-05-16T02:38:01.280Z,6.43
2019-05-16T02:40:31.290Z,4.60
2019-05-16T02:43:01.537Z,6.80
2019-05-16T02:45:32.376Z,6.93
2019-05-16T02:48:21.380Z,4.70
2019-05-16T02:50:51.297Z,7.60
2019-05-16T02:53:22.419Z,5.10
2019-05-16T02:55:51.801Z,4.40
2019-05-16T02:58:23.329Z,4.57
2019-05-16T03:00:51.576Z,5.40
2019-05-16T03:03:21.387Z,6.60
2019-05-16T03:05:50.946Z,5.87
2019-05-16T03:08:21.159Z,4.73
2019-05-16T03:10:51.979Z,5.73
2019-05-16T03:13:22.353Z,5.17
2019-05-16T03:15:51.556Z,8.67
2019-05-16T03:18:22.962Z,6.80
2019-05-16T03:20:52.540Z,6.00
2019-05-16T03:23:21.768Z,4.93
2019-05-16T03:25:50.845Z,4.13
2019-05-16T03:28:22.367Z,7.30
2019-05-16T03:30:54.344Z,8.33
2019-05-16T03:33:30.794Z,6.27
2019-05-16T03:35:54.422Z,4.37
2019-05-16T03:38:21.300Z,4.07
2019-05-16T03:40:50.978Z,8.20
2019-05-16T03:43:21.914Z,6.17
2019-05-16T03:45:52.123Z,5.80
2019-05-16T03:48:21.347Z,5.37
2019-05-16T03:50:50.916Z,7.43
2019-05-16T03:53:21.298Z,4.63
2019-05-16T03:55:51.898Z,6.07
2019-05-16T03:58:22.566Z,6.70
2019-05-16T04:00:55.511Z,7.27
2019-05-16T04:03:28.189Z,7.03
2019-05-16T04:05:54.376Z,6.47
2019-05-16T04:08:25.023Z,7.27
2019-05-16T04:10:53.044Z,7.30
2019-05-16T04:13:22.089Z,8.87
2019-05-16T04:15:52.385Z,8.90
2019-05-16T04:18:21.957Z,6.90
2019-05-16T04:20:52.256Z,5.97
2019-05-16T04:23:21.181Z,9.37
2019-05-16T04:25:52.245Z,5.13
2019-05-16T04:28:21.926Z,12.87
2019-05-16T04:30:50.955Z,6.93
2019-05-16T04:33:22.140Z,5.77
2019-05-16T04:35:52.348Z,6.83
2019-05-16T04:38:34.883Z,5.80
2019-05-16T04:40:52.212Z,8.30
2019-05-16T04:43:22.211Z,10.80
2019-05-16T04:45:52.317Z,6.17
2019-05-16T04:48:22.387Z,10.13
2019-05-16T04:50:52.128Z,6.83
2019-05-16T04:53:21.476Z,7.03
2019-05-16T04:55:51.731Z,8.80
2019-05-16T04:58:23.209Z,8.00
2019-05-16T05:00:51.988Z,7.67
2019-05-16T05:03:21.971Z,8.27
2019-05-16T05:05:51.762Z,6.27
2019-05-16T05:08:21.924Z,6.80
2019-05-16T05:10:51.753Z,10.77
2019-05-16T05:13:22.098Z,10.87
2019-05-16T05:15:51.560Z,7.80
2019-05-16T05:18:21.265Z,8.37
2019-05-16T05:20:52.380Z,9.10
2019-05-16T05:23:21.021Z,11.00
2019-05-16T05:25:51.291Z,11.50
2019-05-16T05:28:21.061Z,8.33
2019-05-16T05:30:50.584Z,6.77
2019-05-16T05:33:21.178Z,10.47
2019-05-16T05:35:50.651Z,7.80
2019-05-16T05:38:21.237Z,10.20
2019-05-16T05:40:51.219Z,6.70
2019-05-16T05:43:21.464Z,9.13
2019-05-16T05:45:51.298Z,17.73
2019-05-16T05:48:21.493Z,8.53
2019-05-16T05:50:50.945Z,10.50
2019-05-16T05:53:20.836Z,8.43
2019-05-16T05:55:51.249Z,7.57
2019-05-16T05:58:40.753Z,8.40
2019-05-16T06:01:11.078Z,5.93
2019-05-16T06:03:39.946Z,9.93
2019-05-16T06:06:10.568Z,6.40
2019-05-16T06:08:40.758Z,8.63
2019-05-16T06:11:10.013Z,8.17
2019-05-16T06:13:40.483Z,5.80
2019-05-16T06:16:10.840Z,12.07
2019-05-16T06:18:39.692Z,9.33
2019-05-16T06:21:11.200Z,11.40
2019-05-16T06:23:40.316Z,10.70
2019-05-16T06:26:11.853Z,9.80
2019-05-16T06:28:41.266Z,9.63
2019-05-16T06:31:14.033Z,9.63
2019-05-16T06:33:41.122Z,7.90
2019-05-16T06:36:11.015Z,9.50
2019-05-16T06:38:40.557Z,7.57
2019-05-16T06:41:10.651Z,8.70
2019-05-16T06:43:40.046Z,10.33
2019-05-16T06:46:10.813Z,7.20
2019-05-16T06:48:39.814Z,8.30
2019-05-16T06:51:10.586Z,6.83
2019-05-16T06:53:40.453Z,6.97
2019-05-16T06:56:10.478Z,10.00
2019-05-16T06:58:47.666Z,7.77
2019-05-16T07:01:10.326Z,7.40
2019-05-16T07:03:40.073Z,5.60
2019-05-16T07:06:11.133Z,8.77
2019-05-16T07:08:40.296Z,9.73
2019-05-16T07:11:10.519Z,5.97
2019-05-16T07:13:40.622Z,7.60
2019-05-16T07:16:09.714Z,6.63
2019-05-16T07:18:40.186Z,7.53
2019-05-16T07:21:10.934Z,9.33
2019-05-16T07:23:40.435Z,6.37
2019-05-16T07:26:09.929Z,12.17
2019-05-16T07:28:40.607Z,6.50
2019-05-16T07:31:15.694Z,6.23
2019-05-16T07:33:40.636Z,6.27
2019-05-16T07:36:09.891Z,10.83
2019-05-16T07:38:40.064Z,8.13
2019-05-16T07:41:11.054Z,7.60
2019-05-16T07:43:40.101Z,8.07
2019-05-16T07:46:11.021Z,11.03
2019-05-16T07:48:40.387Z,9.23
2019-05-16T07:51:10.429Z,10.97
2019-05-16T07:53:40.301Z,8.67
2019-05-16T07:56:10.613Z,5.70
2019-05-16T07:58:41.341Z,8.53
2019-05-16T08:01:12.421Z,6.10
2019-05-16T08:03:43.670Z,9.53
2019-05-16T08:06:10.923Z,6.73
2019-05-16T08:08:40.397Z,7.83
2019-05-16T08:11:11.817Z,7.20
2019-05-16T08:13:39.985Z,8.13
2019-05-16T08:16:10.252Z,9.67
2019-05-16T08:18:44.727Z,8.53
2019-05-16T08:21:11.466Z,9.57
2019-05-16T08:23:41.125Z,9.70
2019-05-16T08:26:10.367Z,8.63
2019-05-16T08:28:41.234Z,8.10
2019-05-16T08:31:11.773Z,8.87
2019-05-16T08:33:41.638Z,8.07
2019-05-16T08:36:11.908Z,7.87
2019-05-16T08:38:43.017Z,7.27
2019-05-16T08:41:31.497Z,6.47
2019-05-16T08:44:01.110Z,7.93
2019-05-16T08:46:32.312Z,7.70
2019-05-16T08:49:01.051Z,6.73
2019-05-16T08:51:33.320Z,7.87
2019-05-16T08:54:01.587Z,5.37
2019-05-16T08:56:31.749Z,10.93
2019-05-16T08:59:02.434Z,10.13
2019-05-16T09:01:34.889Z,8.87
2019-05-16T09:04:01.583Z,7.90
2019-05-16T09:06:32.009Z,8.13
2019-05-16T09:09:12.320Z,11.10
2019-05-16T09:11:40.494Z,8.17
2019-05-16T09:14:01.066Z,9.50
2019-05-16T09:16:29.499Z,13.20
2019-05-16T09:18:58.042Z,7.40
2019-05-16T09:21:27.454Z,9.73
2019-05-16T09:23:57.823Z,12.30
2019-05-16T09:26:28.626Z,7.70
2019-05-16T09:28:57.374Z,8.70
2019-05-16T09:31:27.578Z,5.87
2019-05-16T09:33:56.827Z,9.93
2019-05-16T09:36:27.761Z,10.27
2019-05-16T09:38:57.782Z,7.77
2019-05-16T09:41:28.777Z,12.93
2019-05-16T09:43:58.853Z,9.10
2019-05-16T09:46:27.573Z,9.53
2019-05-16T09:49:15.878Z,7.10
2019-05-16T09:51:27.140Z,10.00
2019-05-16T09:53:56.729Z,7.77
2019-05-16T09:56:27.006Z,7.57
2019-05-16T09:58:57.444Z,10.77
2019-05-16T10:01:27.569Z,8.80
2019-05-16T10:03:56.263Z,6.80
2019-05-16T10:06:27.429Z,6.50
2019-05-16T10:08:56.871Z,8.87
2019-05-16T10:11:30.287Z,8.67
2019-05-16T10:13:55.329Z,7.27
2019-05-16T10:16:23.785Z,9.47
2019-05-16T10:18:52.224Z,7.93
2019-05-16T10:21:20.830Z,5.80
2019-05-16T10:23:49.390Z,8.70
2019-05-16T10:26:19.440Z,7.77
2019-05-16T10:28:48.148Z,7.00
2019-05-16T10:31:17.869Z,8.53
2019-05-16T10:33:47.681Z,8.77
2019-05-16T10:36:17.172Z,7.50
2019-05-16T10:38:48.340Z,7.57
2019-05-16T10:41:16.909Z,9.60
2019-05-16T10:43:47.285Z,10.47
2019-05-16T10:46:17.780Z,8.73
2019-05-16T10:48:46.938Z,8.07
2019-05-16T10:51:16.981Z,9.50
2019-05-16T10:54:02.385Z,9.93
2019-05-16T10:56:15.897Z,10.23
2019-05-16T10:59:05.000Z,12.20
2019-05-16T11:01:26.553Z,9.13
2019-05-16T11:03:48.860Z,7.17
2019-05-16T11:06:25.256Z,9.87
2019-05-16T11:08:46.573Z,7.77
2019-05-16T11:11:19.709Z,9.47
2019-05-16T11:13:47.193Z,9.67
2019-05-16T11:16:17.467Z,9.97
2019-05-16T11:18:46.038Z,9.77
2019-05-16T11:21:18.951Z,10.73
2019-05-16T11:23:46.969Z,10.33
2019-05-16T11:26:14.826Z,9.93
2019-05-16T11:28:43.366Z,10.17
2019-05-16T11:31:11.815Z,10.17
2019-05-16T11:33:40.306Z,7.90
2019-05-16T11:36:12.580Z,8.90
2019-05-16T11:38:39.023Z,10.43
2019-05-16T11:41:07.820Z,9.60
2019-05-16T11:43:36.773Z,7.70
2019-05-16T11:46:05.437Z,11.67
2019-05-16T11:48:33.938Z,9.30
2019-05-16T11:51:02.423Z,11.10
2019-05-16T11:53:30.938Z,11.77
2019-05-16T11:56:01.487Z,12.70
2019-05-16T11:58:29.609Z,10.73
2019-05-16T12:00:58.119Z,10.87
2019-05-16T12:03:28.215Z,13.83
2019-05-16T12:05:57.996Z,13.23
2019-05-16T12:08:26.774Z,12.67
2019-05-16T12:10:55.309Z,13.50
2019-05-16T12:13:28.415Z,11.23
2019-05-16T12:15:56.589Z,10.93
2019-05-16T12:18:26.644Z,9.67
2019-05-16T12:20:56.622Z,11.73
2019-05-16T12:23:27.497Z,13.43
2019-05-16T12:25:56.576Z,13.83
2019-05-16T12:28:27.220Z,16.13
2019-05-16T12:30:56.295Z,10.20
2019-05-16T12:33:27.458Z,11.30
2019-05-16T12:35:57.446Z,12.13
2019-05-16T12:38:27.610Z,13.30
2019-05-16T12:40:56.518Z,11.03
2019-05-16T12:43:43.315Z,12.53
2019-05-16T12:45:56.986Z,11.33
2019-05-16T12:48:25.406Z,11.70
2019-05-16T12:50:53.852Z,11.87
2019-05-16T12:53:23.566Z,13.50
2019-05-16T12:55:52.563Z,10.53
2019-05-16T12:58:26.010Z,11.07
2019-05-16T13:00:57.362Z,10.47
2019-05-16T13:03:21.472Z,12.47
2019-05-16T13:05:50.806Z,10.27
2019-05-16T13:08:19.272Z,13.03
2019-05-16T13:10:47.736Z,12.93
2019-05-16T13:13:17.626Z,12.60
2019-05-16T13:15:47.511Z,12.23
2019-05-16T13:18:17.024Z,12.77
2019-05-16T13:20:46.760Z,19.00
2019-05-16T13:23:18.110Z,11.90
2019-05-16T13:25:48.204Z,11.83
2019-05-16T13:28:16.034Z,10.80
2019-05-16T13:30:46.931Z,11.40
2019-05-16T13:33:14.657Z,13.13
2019-05-16T13:35:43.195Z,13.23
2019-05-16T13:38:11.681Z,14.97
2019-05-16T13:40:40.458Z,16.60
2019-05-16T13:43:10.302Z,12.37
2019-05-16T13:45:39.133Z,13.10
2019-05-16T13:48:08.237Z,16.27
2019-05-16T13:50:39.697Z,14.50
2019-05-16T13:53:07.961Z,12.80
2019-05-16T13:55:37.861Z,13.93
2019-05-16T13:58:07.654Z,14.20
2019-05-16T14:00:37.570Z,13.43
2019-05-16T14:03:07.319Z,11.87
2019-05-16T14:05:37.988Z,14.70
2019-05-16T14:08:06.942Z,12.50
2019-05-16T14:11:00.781Z,12.63
2019-05-16T14:13:27.484Z,12.40
2019-05-16T14:15:55.370Z,12.83
2019-05-16T14:18:23.841Z,16.57
2019-05-16T14:20:52.315Z,12.17
2019-05-16T14:23:20.808Z,12.50
2019-05-16T14:25:49.337Z,13.87
2019-05-16T14:28:17.916Z,12.00
2019-05-16T14:30:46.860Z,13.37
2019-05-16T14:33:17.246Z,12.60
2019-05-16T14:35:47.275Z,13.37
2019-05-16T14:38:17.626Z,14.20
2019-05-16T14:40:50.037Z,14.87
2019-05-16T14:43:17.266Z,13.33
2019-05-16T14:45:46.635Z,12.93
2019-05-16T14:48:18.186Z,14.37
2019-05-16T14:50:47.096Z,14.63
2019-05-16T14:53:17.883Z,12.13
2019-05-16T14:55:47.615Z,13.20
2019-05-16T14:58:16.442Z,13.40
2019-05-16T15:00:48.429Z,14.47
2019-05-16T15:03:17.892Z,13.60
2019-05-16T15:05:48.074Z,14.97
2019-05-16T15:08:18.221Z,14.13
2019-05-16T15:10:46.843Z,14.97
2019-05-16T15:13:17.442Z,12.63
2019-05-16T15:15:46.545Z,18.03
2019-05-16T15:18:17.766Z,12.97
2019-05-16T15:20:46.972Z,13.73
2019-05-16T15:23:17.556Z,13.10
2019-05-16T15:25:45.882Z,14.93
2019-05-16T15:28:17.011Z,14.43
2019-05-16T15:30:46.820Z,14.07
2019-05-16T15:33:16.840Z,13.57
2019-05-16T15:35:47.034Z,14.77
2019-05-16T15:38:16.654Z,16.53
2019-05-16T15:40:47.917Z,16.50
2019-05-16T15:43:18.250Z,15.27
2019-05-16T15:45:49.919Z,18.73
2019-05-16T15:48:17.249Z,14.90
2019-05-16T15:50:46.184Z,16.60
2019-05-16T15:53:14.698Z,15.33
2019-05-16T15:55:43.705Z,15.33
2019-05-16T15:58:12.208Z,14.03
2019-05-16T16:00:48.199Z,14.30
2019-05-16T16:03:17.564Z,13.90
2019-05-16T16:05:46.381Z,15.17
2019-05-16T16:08:17.828Z,17.77
2019-05-16T16:10:47.795Z,14.70
2019-05-16T16:13:19.416Z,14.80
2019-05-16T16:15:53.196Z,14.23
2019-05-16T16:18:19.480Z,21.10
2019-05-16T16:20:47.794Z,14.27
2019-05-16T16:23:17.729Z,15.07
2019-05-16T16:25:50.809Z,13.83
2019-05-16T16:28:17.684Z,14.17
2019-05-16T16:30:47.917Z,15.50
2019-05-16T16:33:22.553Z,15.10
2019-05-16T16:35:47.937Z,14.00
2019-05-16T16:38:17.102Z,14.93
2019-05-16T16:40:47.821Z,15.63
2019-05-16T16:43:15.905Z,15.20
2019-05-16T16:45:44.370Z,14.90
2019-05-16T16:48:12.882Z,15.20
2019-05-16T16:50:41.349Z,17.37
2019-05-16T16:53:09.806Z,16.03
2019-05-16T16:55:38.255Z,14.73
2019-05-16T16:58:09.648Z,15.37
2019-05-16T17:00:37.770Z,16.50
2019-05-16T17:03:10.424Z,19.83
2019-05-16T17:05:37.204Z,18.80
2019-05-16T17:08:07.649Z,19.33
2019-05-16T17:10:38.029Z,20.30
2019-05-16T17:13:07.000Z,18.50
2019-05-16T17:15:36.728Z,17.30
2019-05-16T17:18:06.996Z,19.33
2019-05-16T17:20:37.131Z,17.63
2019-05-16T17:23:06.774Z,17.70
2019-05-16T17:25:36.651Z,17.70
2019-05-16T17:28:07.128Z,18.97
2019-05-16T17:30:36.853Z,19.83
2019-05-16T17:33:07.744Z,20.47
2019-05-16T17:35:38.531Z,20.87
2019-05-16T17:38:06.766Z,18.87
2019-05-16T17:40:38.107Z,17.27
2019-05-16T17:43:07.328Z,17.67
2019-05-16T17:45:37.630Z,19.53
2019-05-16T17:48:06.991Z,18.90
2019-05-16T17:50:37.326Z,21.73
2019-05-16T17:53:07.292Z,22.53
2019-05-16T17:55:36.909Z,23.73
2019-05-16T17:58:08.726Z,23.63
2019-05-16T18:00:36.628Z,21.03
2019-05-16T18:03:06.668Z,23.77
2019-05-16T18:05:37.164Z,24.43
2019-05-16T18:08:07.411Z,21.57
2019-05-16T18:10:36.680Z,20.60
2019-05-16T18:13:07.805Z,21.80
2019-05-16T18:15:36.714Z,22.10
2019-05-16T18:18:07.222Z,25.07
2019-05-16T18:20:37.311Z,23.77
2019-05-16T18:23:06.967Z,23.73
2019-05-16T18:25:36.494Z,23.47
2019-05-16T18:28:07.872Z,23.07
2019-05-16T18:30:36.580Z,21.83
2019-05-16T18:33:07.255Z,25.30
2019-05-16T18:35:37.058Z,22.20
2019-05-16T18:38:07.453Z,25.60
2019-05-16T18:40:36.970Z,23.40
2019-05-16T18:43:08.116Z,27.03
2019-05-16T18:45:36.636Z,35.00
2019-05-16T18:48:07.338Z,29.33
2019-05-16T18:50:37.653Z,28.13
2019-05-16T18:53:07.125Z,32.60
2019-05-16T18:55:37.257Z,32.50
2019-05-16T18:58:08.663Z,33.07
2019-05-16T19:00:37.591Z,35.63
2019-05-16T19:03:07.858Z,36.77
2019-05-16T19:05:37.251Z,34.57
2019-05-16T19:08:07.263Z,36.47
2019-05-16T19:10:36.858Z,41.10
2019-05-16T19:13:08.183Z,39.17
2019-05-16T19:15:37.405Z,38.30
2019-05-16T19:18:06.935Z,36.97
2019-05-16T19:20:37.608Z,41.93
2019-05-16T19:23:07.399Z,41.37
2019-05-16T19:25:36.121Z,42.03
2019-05-16T19:28:06.981Z,41.83
2019-05-16T19:30:37.430Z,42.70
2019-05-16T19:33:06.927Z,39.77
2019-05-16T19:35:36.047Z,39.67
2019-05-16T19:38:06.772Z,36.50
2019-05-16T19:40:37.554Z,38.80
2019-05-16T19:43:07.342Z,35.23
2019-05-16T19:45:37.252Z,35.03
2019-05-16T19:48:07.152Z,36.10
2019-05-16T19:50:37.148Z,36.80
2019-05-16T19:53:07.690Z,37.03
2019-05-16T19:55:36.653Z,37.87
2019-05-16T19:58:06.928Z,39.10
2019-05-16T20:00:37.629Z,35.63
2019-05-16T20:03:07.610Z,39.73
2019-05-16T20:05:37.595Z,38.10
2019-05-16T20:08:06.896Z,35.57
2019-05-16T20:10:36.775Z,34.90
2019-05-16T20:13:07.493Z,36.47
2019-05-16T20:15:36.559Z,35.13
2019-05-16T20:18:07.737Z,36.43
2019-05-16T20:20:37.180Z,36.27
2019-05-16T20:23:06.679Z,38.03
2019-05-16T20:25:36.485Z,32.20
2019-05-16T20:28:08.705Z,34.00
2019-05-16T20:30:37.123Z,37.90
2019-05-16T20:33:08.931Z,32.10
2019-05-16T20:35:37.538Z,37.50
2019-05-16T20:38:06.974Z,33.20
2019-05-16T20:40:37.503Z,35.13
2019-05-16T20:43:07.656Z,35.67
2019-05-16T20:45:39.515Z,36.80
2019-05-16T20:48:12.078Z,40.00
2019-05-16T20:50:36.629Z,35.83
2019-05-16T20:53:07.262Z,38.00
2019-05-16T20:55:37.565Z,35.53
2019-05-16T20:58:07.633Z,33.43
2019-05-16T21:00:37.821Z,39.37
2019-05-16T21:03:07.072Z,33.13
2019-05-16T21:05:38.268Z,33.27
2019-05-16T21:08:06.629Z,32.10
2019-05-16T21:10:35.331Z,35.20
2019-05-16T21:13:04.007Z,33.83
2019-05-16T21:15:32.455Z,35.40
2019-05-16T21:18:00.929Z,34.03
2019-05-16T21:20:29.838Z,34.23
2019-05-16T21:22:58.518Z,36.63
2019-05-16T21:25:27.005Z,35.47
2019-05-16T21:27:57.269Z,36.30
2019-05-16T21:30:27.383Z,34.30
2019-05-16T21:32:56.545Z,32.07
2019-05-16T21:35:27.061Z,35.27
2019-05-16T21:37:55.499Z,31.80
2019-05-16T21:40:26.288Z,38.13
2019-05-16T21:42:58.427Z,36.83
2019-05-16T21:45:28.303Z,38.20
2019-05-16T21:47:56.601Z,36.40
2019-05-16T21:50:27.358Z,38.73
2019-05-16T21:52:56.556Z,35.73
2019-05-16T21:55:27.306Z,36.20
2019-05-16T21:57:57.443Z,38.87
2019-05-16T22:00:38.660Z,36.83
2019-05-16T22:03:07.639Z,40.63
2019-05-16T22:05:37.030Z,40.13
2019-05-16T22:08:07.402Z,38.30
2019-05-16T22:10:37.321Z,40.93
2019-05-16T22:13:07.803Z,39.53
2019-05-16T22:15:36.707Z,40.00
2019-05-16T22:18:07.267Z,40.43
2019-05-16T22:20:35.611Z,45.80
2019-05-16T22:23:04.141Z,41.53
2019-05-16T22:25:32.679Z,39.40
2019-05-16T22:28:01.361Z,41.37
2019-05-16T22:30:29.978Z,42.97
2019-05-16T22:32:58.413Z,43.30
2019-05-16T22:35:27.460Z,41.77
2019-05-16T22:37:59.210Z,41.30
2019-05-16T22:40:26.803Z,40.57
2019-05-16T22:42:57.390Z,44.70
2019-05-16T22:45:27.118Z,48.83
2019-05-16T22:47:55.861Z,47.40
2019-05-16T22:50:26.922Z,47.33
2019-05-16T22:52:56.809Z,45.20
2019-05-16T22:55:26.418Z,51.47
2019-05-16T22:57:56.527Z,45.13
2019-05-16T23:00:29.535Z,47.20
2019-05-16T23:02:58.097Z,47.10
2019-05-16T23:05:27.420Z,50.23
2019-05-16T23:08:05.032Z,45.70
2019-05-16T23:10:28.097Z,53.67
2019-05-16T23:12:57.202Z,52.43
2019-05-16T23:15:26.665Z,50.63
2019-05-16T23:17:57.354Z,50.73
2019-05-16T23:20:27.805Z,48.23
2019-05-16T23:22:56.557Z,55.73
2019-05-16T23:25:25.171Z,55.63
2019-05-16T23:27:53.923Z,51.33
2019-05-16T23:30:22.537Z,53.73
2019-05-16T23:32:51.019Z,49.80
2019-05-16T23:35:19.484Z,52.37
2019-05-16T23:37:47.929Z,53.13
2019-05-16T23:40:16.604Z,54.97
2019-05-16T23:42:46.475Z,58.00
2019-05-16T23:45:17.156Z,56.30
2019-05-16T23:47:47.091Z,52.80
2019-05-16T23:50:17.011Z,49.70
2019-05-16T23:52:47.078Z,53.40
2019-05-16T23:55:17.367Z,53.77
2019-05-16T23:57:46.665Z,56.70
